Nissho Maru No.18 — JL6369 — position and weather

sailwx.info

Track history (hours):
 
Tides and Currents Weather Stations Pressure Air Temp Water Temp Dewpoint Dewpoint Depression Visibility Wind Speed Wind Dir Waves Ship Positions

Nissho Maru No.18

Last reported at 2014-Oct-25 09:32 UTC. Time now 2014-Oct-25 10:21 UTC.
Position N 34°07' E 135°08'.

Length 65 m; draft 4 m.

Type: Tanker. MMSI: 431500465.

Date/timePositionNaut miles runAvg speedWind from/ knotsBaromVisibWave heightAir tempDewpointWater temp
2014-Oct-25 09:32N 34°07' E 135°08'0 0.0
2014-Oct-25 08:34N 34°07' E 135°08'0 0.0
2014-Oct-25 07:33N 34°07' E 135°08'0 0.0
2014-Oct-25 06:33N 34°07' E 135°08'11 8.5
2014-Oct-25 05:18N 34°17' E 135°04'811.1
2014-Oct-25 04:33N 34°24' E 135°09'1110.5
2014-Oct-25 03:33N 34°31' E 135°19'7 5.1
2014-Oct-25 02:13N 34°33' E 135°26'0 0.0
2014-Oct-25 01:21N 34°33' E 135°26'0 0.0
2014-Oct-25 00:30N 34°33' E 135°26'0 0.0
2014-Oct-24 23:31N 34°33' E 135°26'4 3.6
2014-Oct-24 22:32N 34°33' E 135°22'3 2.9
2014-Oct-24 21:33N 34°33' E 135°19'0 0.0
2014-Oct-24 20:33N 34°33' E 135°19'0 0.0
2014-Oct-24 19:18N 34°33' E 135°19'0 0.0
2014-Oct-24 18:33N 34°33' E 135°19'0 0.0
2014-Oct-24 17:33N 34°33' E 135°19'0 0.0
2014-Oct-24 16:33N 34°33' E 135°19'0 0.0
2014-Oct-24 15:27N 34°33' E 135°19'0 0.0
2014-Oct-24 14:32N 34°33' E 135°19'0 0.0
2014-Oct-24 13:33N 34°33' E 135°19'0 0.0
2014-Oct-24 12:32N 34°33' E 135°19'0 0.1
2014-Oct-24 11:31N 34°33' E 135°19'0 0.0
2014-Oct-24 10:33N 34°33' E 135°19'0 0.0
2014-Oct-24 09:33N 34°33' E 135°19'0 0.0
2014-Oct-24 08:33N 34°33' E 135°19'0 0.0
2014-Oct-24 07:33N 34°33' E 135°19'0 0.0
2014-Oct-24 06:31N 34°33' E 135°19'0 0.0
2014-Oct-24 05:33N 34°33' E 135°19'0 0.0
2014-Oct-24 04:32N 34°33' E 135°19'0 0.0
2014-Oct-24 03:33N 34°33' E 135°19'0 0.0
2014-Oct-24 02:33N 34°33' E 135°19'0 0.0
2014-Oct-24 01:33N 34°33' E 135°19'0 0.0
2014-Oct-24 00:30N 34°33' E 135°19'0 0.0
2014-Oct-23 23:28N 34°33' E 135°19'0 0.0
2014-Oct-23 22:05N 34°33' E 135°19'0 0.0
2014-Oct-23 21:32N 34°33' E 135°19'0 0.0
2014-Oct-23 20:32N 34°33' E 135°19'0 0.0
2014-Oct-23 19:33N 34°33' E 135°19'8 7.8
2014-Oct-23 18:33N 34°34' E 135°09'1412.2
2014-Oct-23 17:25N 34°35' E 134°53'126 9.1
2014-Oct-23 03:33N 34°12' E 132°22'10 9.8
2014-Oct-23 02:33N 34°20' E 132°29'2 2.4
2014-Oct-23 01:33N 34°22' E 132°31'0 0.0
2014-Oct-23 00:33N 34°22' E 132°31'0 0.0
2014-Oct-22 23:33N 34°22' E 132°31'4 3.7
2014-Oct-22 22:33N 34°19' E 132°29'0 0.0
2014-Oct-22 21:33N 34°19' E 132°29'0 0.0
2014-Oct-22 20:33N 34°19' E 132°29'0 0.0
2014-Oct-22 19:33N 34°19' E 132°29'0 0.1
2014-Oct-22 18:33N 34°19' E 132°29'0 0.0
2014-Oct-22 17:33N 34°19' E 132°29'0 0.0
2014-Oct-22 16:33N 34°19' E 132°29'0 0.1
2014-Oct-22 15:33N 34°19' E 132°29'0 0.1
2014-Oct-22 14:33N 34°19' E 132°29'0 0.0
2014-Oct-22 13:33N 34°19' E 132°29'0 0.0
2014-Oct-22 12:33N 34°19' E 132°29'0 0.0
2014-Oct-22 11:33N 34°19' E 132°29'0 0.0
2014-Oct-22 10:33N 34°19' E 132°29'0 0.0
2014-Oct-22 09:33N 34°19' E 132°29'3 2.5
2014-Oct-22 08:33N 34°17' E 132°26'8 8.5
2014-Oct-22 07:33N 34°10' E 132°22'  
Track history (hours):
 
Tides and Currents Weather Stations Pressure Air Temp Water Temp Dewpoint Dewpoint Depression Visibility Wind Speed Wind Dir Waves Ship Positions

Nissho Maru No.18

Last reported at 2014-Oct-25 09:32 UTC. Time now 2014-Oct-25 10:21 UTC.
Position N 34°07' E 135°08'.

Length 65 m; draft 4 m.

Type: Tanker. MMSI: 431500465.

Date/timePositionNaut miles runAvg speedWind from/ knotsBaromVisibWave heightAir tempDewpointWater temp
2014-Oct-25 09:32N 34°07' E 135°08'0 0.0
2014-Oct-25 08:34N 34°07' E 135°08'0 0.0
2014-Oct-25 07:33N 34°07' E 135°08'0 0.0
2014-Oct-25 06:33N 34°07' E 135°08'11 8.5
2014-Oct-25 05:18N 34°17' E 135°04'811.1
2014-Oct-25 04:33N 34°24' E 135°09'1110.5
2014-Oct-25 03:33N 34°31' E 135°19'7 5.1
2014-Oct-25 02:13N 34°33' E 135°26'0 0.0
2014-Oct-25 01:21N 34°33' E 135°26'0 0.0
2014-Oct-25 00:30N 34°33' E 135°26'0 0.0
2014-Oct-24 23:31N 34°33' E 135°26'4 3.6
2014-Oct-24 22:32N 34°33' E 135°22'3 2.9
2014-Oct-24 21:33N 34°33' E 135°19'0 0.0
2014-Oct-24 20:33N 34°33' E 135°19'0 0.0
2014-Oct-24 19:18N 34°33' E 135°19'0 0.0
2014-Oct-24 18:33N 34°33' E 135°19'0 0.0
2014-Oct-24 17:33N 34°33' E 135°19'0 0.0
2014-Oct-24 16:33N 34°33' E 135°19'0 0.0
2014-Oct-24 15:27N 34°33' E 135°19'0 0.0
2014-Oct-24 14:32N 34°33' E 135°19'0 0.0
2014-Oct-24 13:33N 34°33' E 135°19'0 0.0
2014-Oct-24 12:32N 34°33' E 135°19'0 0.1
2014-Oct-24 11:31N 34°33' E 135°19'0 0.0
2014-Oct-24 10:33N 34°33' E 135°19'0 0.0
2014-Oct-24 09:33N 34°33' E 135°19'0 0.0
2014-Oct-24 08:33N 34°33' E 135°19'0 0.0
2014-Oct-24 07:33N 34°33' E 135°19'0 0.0
2014-Oct-24 06:31N 34°33' E 135°19'0 0.0
2014-Oct-24 05:33N 34°33' E 135°19'0 0.0
2014-Oct-24 04:32N 34°33' E 135°19'0 0.0
2014-Oct-24 03:33N 34°33' E 135°19'0 0.0
2014-Oct-24 02:33N 34°33' E 135°19'0 0.0
2014-Oct-24 01:33N 34°33' E 135°19'0 0.0
2014-Oct-24 00:30N 34°33' E 135°19'0 0.0
2014-Oct-23 23:28N 34°33' E 135°19'0 0.0
2014-Oct-23 22:05N 34°33' E 135°19'0 0.0
2014-Oct-23 21:32N 34°33' E 135°19'0 0.0
2014-Oct-23 20:32N 34°33' E 135°19'0 0.0
2014-Oct-23 19:33N 34°33' E 135°19'8 7.8
2014-Oct-23 18:33N 34°34' E 135°09'1412.2
2014-Oct-23 17:25N 34°35' E 134°53'126 9.1
2014-Oct-23 03:33N 34°12' E 132°22'10 9.8
2014-Oct-23 02:33N 34°20' E 132°29'2 2.4
2014-Oct-23 01:33N 34°22' E 132°31'0 0.0
2014-Oct-23 00:33N 34°22' E 132°31'0 0.0
2014-Oct-22 23:33N 34°22' E 132°31'4 3.7
2014-Oct-22 22:33N 34°19' E 132°29'0 0.0
2014-Oct-22 21:33N 34°19' E 132°29'0 0.0
2014-Oct-22 20:33N 34°19' E 132°29'0 0.0
2014-Oct-22 19:33N 34°19' E 132°29'0 0.1
2014-Oct-22 18:33N 34°19' E 132°29'0 0.0
2014-Oct-22 17:33N 34°19' E 132°29'0 0.0
2014-Oct-22 16:33N 34°19' E 132°29'0 0.1
2014-Oct-22 15:33N 34°19' E 132°29'0 0.1
2014-Oct-22 14:33N 34°19' E 132°29'0 0.0
2014-Oct-22 13:33N 34°19' E 132°29'0 0.0
2014-Oct-22 12:33N 34°19' E 132°29'0 0.0
2014-Oct-22 11:33N 34°19' E 132°29'0 0.0
2014-Oct-22 10:33N 34°19' E 132°29'0 0.0
2014-Oct-22 09:33N 34°19' E 132°29'3 2.5
2014-Oct-22 08:33N 34°17' E 132°26'8 8.5
2014-Oct-22 07:33N 34°10' E 132°22'  

Dump ship's entire track history